Time;durP1;ratioP1;P1;durP2;ratioP2;P2;SDS_P1;SDS_P2;PMS_P1;PMS_P2;Temp;Humidity;BMP_temperature;BMP_pressure;BME280_temperature;BME280_humidity;BME280_pressure;Samples;Min_cycle;Max_cycle;Signal;HPM_P1;HPM_P2
2022/10/16 00:01:16;;;;;;;0.13;0.13;;;;;;;12.52;100.00;96243.50;5023131;28;20274;-75
2022/10/16 00:04:02;;;;;;;0.10;0.10;;;;;;;12.51;100.00;96246.44;5023860;28;20116;-74
2022/10/16 00:06:49;;;;;;;0.10;0.10;;;;;;;12.57;100.00;96258.81;5023629;28;20048;-75
2022/10/16 00:09:35;;;;;;;0.20;0.20;;;;;;;12.68;100.00;96244.31;5024422;28;20084;-75
2022/10/16 00:12:23;;;;;;;0.15;0.15;;;;;;;12.63;100.00;96235.47;5021834;28;20095;-73
2022/10/16 00:15:09;;;;;;;0.17;0.17;;;;;;;12.62;100.00;96225.81;5021589;28;20583;-73
2022/10/16 00:17:55;;;;;;;0.10;0.10;;;;;;;12.64;100.00;96226.34;5024657;28;20477;-73
2022/10/16 00:20:41;;;;;;;0.10;0.10;;;;;;;12.58;100.00;96232.78;5012057;28;20055;-73
2022/10/16 00:23:26;;;;;;;0.10;0.10;;;;;;;12.57;100.00;96233.84;5028053;28;20122;-75
2022/10/16 00:26:15;;;;;;;0.10;0.10;;;;;;;12.48;100.00;96223.66;5021260;28;20029;-75
2022/10/16 00:29:02;;;;;;;0.10;0.10;;;;;;;12.55;100.00;96242.97;5007721;28;20125;-75
2022/10/16 00:31:48;;;;;;;0.10;0.10;;;;;;;12.47;100.00;96234.66;5015562;28;20398;-75
2022/10/16 00:34:34;;;;;;;0.20;0.20;;;;;;;12.36;100.00;96220.38;5022561;28;20056;-72
2022/10/16 00:37:20;;;;;;;0.10;0.10;;;;;;;12.31;100.00;96238.38;5023785;28;20041;-73
2022/10/16 00:40:07;;;;;;;0.20;0.20;;;;;;;12.30;100.00;96237.56;5020432;28;20525;-76
2022/10/16 00:42:53;;;;;;;0.10;0.10;;;;;;;12.37;100.00;96240.78;5020913;28;20048;-75
2022/10/16 00:45:39;;;;;;;0.10;0.10;;;;;;;12.44;100.00;96244.00;5021634;28;20245;-75
2022/10/16 00:48:25;;;;;;;0.20;0.10;;;;;;;12.50;100.00;96234.09;5021155;28;20049;-75
2022/10/16 00:51:11;;;;;;;0.10;0.10;;;;;;;12.45;100.00;96242.97;5024899;28;20047;-75
2022/10/16 00:53:57;;;;;;;0.10;0.10;;;;;;;12.53;100.00;96247.81;5024131;28;20574;-75
2022/10/16 00:56:44;;;;;;;0.20;0.10;;;;;;;12.57;100.00;96256.13;5025576;28;20045;-75
2022/10/16 00:59:37;;;;;;;0.20;0.20;;;;;;;12.55;100.00;96258.28;5023222;28;20447;-76
2022/10/16 01:02:23;;;;;;;0.10;0.10;;;;;;;12.50;100.00;96269.78;5022468;28;20664;-75
2022/10/16 01:05:09;;;;;;;0.10;0.10;;;;;;;12.52;100.00;96288.31;5022912;28;20483;-74
2022/10/16 01:08:12;;;;;;;0.20;0.20;;;;;;;12.46;100.00;96298.25;5023647;28;20521;-73
2022/10/16 01:11:08;;;;;;;0.25;0.20;;;;;;;12.48;100.00;96284.56;5022722;28;20041;-74
2022/10/16 01:14:00;;;;;;;0.10;0.10;;;;;;;12.45;100.00;96291.28;5024788;28;20052;-74
2022/10/16 01:17:04;;;;;;;0.10;0.10;;;;;;;12.50;100.00;96275.16;5011389;28;20604;-74
2022/10/16 01:20:31;;;;;;;0.10;0.10;;;;;;;12.48;100.00;96258.53;5023802;28;20048;-75
2022/10/16 01:23:41;;;;;;;0.20;0.20;;;;;;;12.46;100.00;96263.38;4977260;28;20054;-74
2022/10/16 01:26:53;;;;;;;0.10;0.10;;;;;;;12.40;100.00;96264.41;5023266;28;20513;-76
2022/10/16 01:29:48;;;;;;;0.10;0.10;;;;;;;12.34;100.00;96256.59;5006418;28;20040;-74
2022/10/16 01:32:55;;;;;;;0.10;0.10;;;;;;;12.25;100.00;96259.00;5010576;28;20037;-74
2022/10/16 01:35:52;;;;;;;0.10;0.10;;;;;;;12.26;100.00;96282.06;5025067;28;20509;-73
2022/10/16 01:38:40;;;;;;;0.17;0.17;;;;;;;12.26;100.00;96274.03;5021970;28;20064;-74
2022/10/16 01:41:37;;;;;;;0.10;0.10;;;;;;;12.17;100.00;96281.78;5012986;28;20072;-75
2022/10/16 01:44:29;;;;;;;0.20;0.20;;;;;;;12.12;100.00;96273.69;5026956;28;20037;-76
2022/10/16 01:47:16;;;;;;;0.10;0.10;;;;;;;12.15;100.00;96267.03;5025458;28;20265;-75
2022/10/16 01:50:04;;;;;;;0.10;0.10;;;;;;;12.07;100.00;96278.25;5026566;28;20049;-77
2022/10/16 01:52:55;;;;;;;0.10;0.10;;;;;;;12.05;100.00;96273.13;5019913;28;20237;-75
2022/10/16 01:55:46;;;;;;;0.17;0.17;;;;;;;12.06;100.00;96274.78;5026106;28;20155;-77
2022/10/16 01:58:34;;;;;;;;;;;;;;;11.99;100.00;96277.69;5024400;28;20056;-74
2022/10/16 02:01:24;;;;;;;0.20;0.20;;;;;;;11.94;100.00;96261.56;5025583;28;19924;-76
2022/10/16 02:04:38;;;;;;;0.20;0.20;;;;;;;11.94;100.00;96258.88;5016327;28;20068;-74
2022/10/16 02:07:24;;;;;;;0.10;0.10;;;;;;;11.82;100.00;96276.25;5028303;28;20040;-76
2022/10/16 02:10:10;;;;;;;0.10;0.10;;;;;;;11.79;100.00;96274.06;5024001;28;20413;-73
2022/10/16 02:13:02;;;;;;;0.32;0.10;;;;;;;11.79;100.00;96307.03;5016272;28;20041;-72
2022/10/16 02:15:48;;;;;;;0.10;0.10;;;;;;;11.79;100.00;96301.66;5020831;28;20075;-75
2022/10/16 02:18:33;;;;;;;0.13;0.13;;;;;;;11.81;100.00;96299.56;5017720;28;20148;-74
2022/10/16 02:21:28;;;;;;;0.20;0.20;;;;;;;11.77;100.00;96290.41;5027043;28;20033;-73
2022/10/16 02:24:27;;;;;;;0.15;0.15;;;;;;;11.73;100.00;96300.81;5010552;28;20072;-72
2022/10/16 02:27:22;;;;;;;0.10;0.10;;;;;;;11.73;100.00;96291.97;5010656;28;20049;-75
2022/10/16 02:30:14;;;;;;;0.10;0.10;;;;;;;11.70;100.00;96293.31;5009405;28;20045;-72
2022/10/16 02:33:02;;;;;;;0.10;0.10;;;;;;;11.68;100.00;96297.34;5007148;28;20037;-73
2022/10/16 02:35:50;;;;;;;0.10;0.10;;;;;;;11.66;100.00;96312.84;5011991;28;20520;-74
2022/10/16 02:38:37;;;;;;;0.20;0.20;;;;;;;11.65;100.00;96301.31;5003962;28;20052;-73
2022/10/16 02:41:23;;;;;;;0.10;0.10;;;;;;;11.68;100.00;96300.00;5010813;28;20719;-74
2022/10/16 02:44:09;;;;;;;0.10;0.10;;;;;;;11.66;100.00;96302.13;5008180;28;20037;-73
2022/10/16 02:46:55;;;;;;;0.17;0.17;;;;;;;11.64;100.00;96288.97;5011811;28;20672;-74
2022/10/16 02:49:41;;;;;;;0.10;0.10;;;;;;;11.56;100.00;96296.72;5006950;28;20168;-74
2022/10/16 02:52:27;;;;;;;0.17;0.17;;;;;;;11.70;100.00;96311.28;5008389;28;20103;-74
2022/10/16 02:55:13;;;;;;;0.30;0.20;;;;;;;11.74;100.00;96317.72;5009204;28;20563;-74
2022/10/16 02:57:59;;;;;;;0.13;0.13;;;;;;;11.77;100.00;96309.19;5008438;28;20417;-75
2022/10/16 03:00:45;;;;;;;0.20;0.20;;;;;;;11.77;100.00;96309.19;5007499;28;20157;-74
2022/10/16 03:03:31;;;;;;;0.10;0.10;;;;;;;11.78;100.00;96310.78;5008686;28;20048;-74
2022/10/16 03:06:17;;;;;;;0.10;0.10;;;;;;;11.68;100.00;96300.81;5007629;28;20195;-73
2022/10/16 03:09:03;;;;;;;0.13;0.13;;;;;;;11.70;100.00;96303.22;5008403;28;20037;-75
2022/10/16 03:11:49;;;;;;;0.10;0.10;;;;;;;11.67;100.00;96306.41;5008262;28;20622;-73
2022/10/16 03:14:34;;;;;;;0.13;0.13;;;;;;;11.64;100.00;96317.66;5008122;28;20449;-72
2022/10/16 03:17:20;;;;;;;0.20;0.20;;;;;;;11.59;100.00;96299.66;5005907;28;20422;-73
2022/10/16 03:20:07;;;;;;;0.10;0.10;;;;;;;11.61;100.00;96305.59;5006780;28;20033;-75
2022/10/16 03:22:53;;;;;;;0.10;0.10;;;;;;;11.62;100.00;96315.25;4999998;28;20057;-75
2022/10/16 03:25:39;;;;;;;0.10;0.10;;;;;;;11.63;100.00;96340.16;5027311;28;20082;-75
2022/10/16 03:28:25;;;;;;;0.10;0.10;;;;;;;11.65;100.00;96330.78;5010929;28;20280;-74
2022/10/16 03:31:11;;;;;;;0.10;0.10;;;;;;;11.65;100.00;96314.72;5025549;28;20587;-75
2022/10/16 03:33:57;;;;;;;0.10;0.10;;;;;;;11.66;100.00;96310.97;5025455;28;20048;-73
2022/10/16 03:36:42;;;;;;;0.10;0.10;;;;;;;11.66;100.00;96319.00;5010768;28;20308;-74
2022/10/16 03:39:28;;;;;;;0.17;0.10;;;;;;;11.62;100.00;96303.72;5024061;28;20412;-75
2022/10/16 03:42:14;;;;;;;0.10;0.10;;;;;;;11.54;100.00;96288.13;5024878;28;20140;-74
2022/10/16 03:45:00;;;;;;;0.10;0.10;;;;;;;11.55;100.00;96297.78;5025171;28;20037;-73
2022/10/16 03:47:47;;;;;;;0.10;0.10;;;;;;;11.56;100.00;96308.22;5024462;28;20045;-74
2022/10/16 03:50:33;;;;;;;0.20;0.20;;;;;;;11.66;100.00;96324.38;5025760;28;20044;-74
2022/10/16 03:53:19;;;;;;;0.10;0.10;;;;;;;11.62;100.00;96323.28;5026035;28;20354;-74
2022/10/16 03:56:05;;;;;;;0.10;0.10;;;;;;;11.60;100.00;96325.41;5008016;28;20465;-73
2022/10/16 03:58:50;;;;;;;0.20;0.20;;;;;;;11.60;100.00;96335.34;5024765;28;20393;-73
2022/10/16 04:01:36;;;;;;;0.10;0.10;;;;;;;11.58;100.00;96324.03;5024850;28;20045;-73
2022/10/16 04:04:22;;;;;;;0.20;0.20;;;;;;;11.55;100.00;96325.38;5023292;28;20376;-74
2022/10/16 04:07:08;;;;;;;0.22;0.20;;;;;;;11.60;100.00;96324.63;5021717;28;20387;-72
2022/10/16 04:09:54;;;;;;;0.10;0.10;;;;;;;11.49;100.00;96339.78;5025260;28;20166;-74
2022/10/16 04:12:40;;;;;;;0.10;0.10;;;;;;;11.38;100.00;96340.78;5026712;28;20049;-74
2022/10/16 04:15:26;;;;;;;0.20;0.20;;;;;;;11.39;100.00;96348.56;5026616;28;20584;-74
2022/10/16 04:18:12;;;;;;;0.10;0.10;;;;;;;11.30;100.00;96346.63;5025895;28;20045;-73
2022/10/16 04:21:05;;;;;;;0.10;0.10;;;;;;;11.32;100.00;96361.38;5027093;28;20045;-74
2022/10/16 04:23:51;;;;;;;0.10;0.10;;;;;;;11.40;100.00;96350.19;5026456;28;20134;-74
2022/10/16 04:26:37;;;;;;;0.20;0.20;;;;;;;11.36;100.00;96351.78;5023711;28;20135;-75
2022/10/16 04:29:23;;;;;;;0.10;0.10;;;;;;;11.37;100.00;96360.63;5026163;28;20523;-73
2022/10/16 04:32:09;;;;;;;0.15;0.15;;;;;;;11.37;100.00;96357.94;5022576;28;20535;-72
2022/10/16 04:34:55;;;;;;;0.10;0.10;;;;;;;11.36;100.00;96365.16;5024551;28;20542;-73
2022/10/16 04:37:41;;;;;;;0.20;0.20;;;;;;;11.35;100.00;96350.13;5027450;28;20152;-73
2022/10/16 04:40:27;;;;;;;0.17;0.15;;;;;;;11.33;100.00;96346.91;5024418;28;20049;-74
2022/10/16 04:43:13;;;;;;;0.10;0.10;;;;;;;11.31;100.00;96334.84;5023510;28;20330;-74
2022/10/16 04:45:59;;;;;;;0.10;0.10;;;;;;;11.32;100.00;96353.34;5026295;28;20041;-74
2022/10/16 04:48:45;;;;;;;0.10;0.10;;;;;;;11.31;100.00;96365.13;5023890;28;20590;-73
2022/10/16 04:51:31;;;;;;;0.30;0.20;;;;;;;11.35;100.00;96365.41;5024490;28;20544;-74
2022/10/16 04:54:16;;;;;;;0.10;0.10;;;;;;;11.30;100.00;96368.06;5024975;28;20045;-74
2022/10/16 04:57:04;;;;;;;0.10;0.10;;;;;;;11.23;100.00;96357.53;5025201;28;20512;-73
2022/10/16 04:59:52;;;;;;;0.10;0.10;;;;;;;11.26;100.00;96356.22;5027273;28;20048;-73
2022/10/16 05:02:38;;;;;;;0.20;0.20;;;;;;;11.31;100.00;96353.59;5023923;28;20043;-73
2022/10/16 05:05:24;;;;;;;0.13;0.13;;;;;;;11.31;100.00;96357.06;5025691;28;20077;-75
2022/10/16 05:08:14;;;;;;;0.10;0.10;;;;;;;11.35;100.00;96371.56;5024899;28;20075;-73
2022/10/16 05:11:01;;;;;;;0.10;0.10;;;;;;;11.46;100.00;96385.06;5023016;28;20053;-73
2022/10/16 05:13:47;;;;;;;0.20;0.20;;;;;;;11.49;100.00;96389.91;5023256;28;20048;-73
2022/10/16 05:16:33;;;;;;;0.10;0.10;;;;;;;11.38;100.00;96379.09;5026415;28;20110;-73
2022/10/16 05:19:18;;;;;;;0.28;0.20;;;;;;;11.32;100.00;96372.09;5028013;28;20037;-74
2022/10/16 05:22:04;;;;;;;0.20;0.20;;;;;;;11.32;100.00;96373.97;5029407;28;20088;-74
2022/10/16 05:24:50;;;;;;;0.20;0.20;;;;;;;11.40;100.00;96373.50;5029278;28;20298;-73
2022/10/16 05:27:36;;;;;;;0.20;0.20;;;;;;;11.35;100.00;96379.59;5025149;28;20555;-72
2022/10/16 05:30:22;;;;;;;0.17;0.17;;;;;;;11.27;100.00;96377.38;5026959;28;20176;-74
2022/10/16 05:33:08;;;;;;;0.10;0.10;;;;;;;11.25;100.00;96381.38;5027631;28;20148;-75
2022/10/16 05:35:54;;;;;;;0.32;0.20;;;;;;;11.28;100.00;96392.41;5027409;28;20123;-74
2022/10/16 05:38:40;;;;;;;0.20;0.20;;;;;;;11.28;100.00;96387.03;5026793;28;20056;-72
2022/10/16 05:41:26;;;;;;;0.10;0.10;;;;;;;11.26;100.00;96391.84;5016311;28;20444;-75
2022/10/16 05:44:12;;;;;;;0.10;0.10;;;;;;;11.34;100.00;96372.63;5015489;28;20302;-73
2022/10/16 05:46:58;;;;;;;0.10;0.10;;;;;;;11.32;100.00;96382.81;5027493;28;20045;-73
2022/10/16 05:49:43;;;;;;;0.10;0.10;;;;;;;11.25;100.00;96368.00;5028312;28;20339;-74
2022/10/16 05:52:29;;;;;;;0.10;0.10;;;;;;;11.31;100.00;96380.38;5025748;28;20045;-74
2022/10/16 05:55:15;;;;;;;0.20;0.20;;;;;;;11.26;100.00;96378.44;5029205;28;20296;-74
2022/10/16 05:58:01;;;;;;;0.20;0.20;;;;;;;11.24;100.00;96374.44;5028586;28;20211;-74
2022/10/16 06:00:58;;;;;;;0.15;0.15;;;;;;;11.23;100.00;96400.41;5026485;28;20044;-74
2022/10/16 06:03:44;;;;;;;0.13;0.10;;;;;;;11.16;100.00;96405.97;5027058;28;20657;-74
2022/10/16 06:06:30;;;;;;;0.10;0.10;;;;;;;11.19;100.00;96388.56;5018599;28;20041;-75
2022/10/16 06:09:17;;;;;;;0.10;0.10;;;;;;;11.19;100.00;96401.16;5028138;28;20045;-73
2022/10/16 06:12:05;;;;;;;0.10;0.10;;;;;;;11.25;100.00;96400.94;5025559;28;20046;-74
2022/10/16 06:14:51;;;;;;;0.10;0.10;;;;;;;11.30;100.00;96406.38;5027893;28;20820;-73
2022/10/16 06:17:36;;;;;;;0.20;0.20;;;;;;;11.37;100.00;96411.53;5027051;28;20068;-73
2022/10/16 06:20:22;;;;;;;0.13;0.13;;;;;;;11.34;100.00;96402.09;5026600;28;20561;-73
2022/10/16 06:23:08;;;;;;;0.20;0.20;;;;;;;11.30;100.00;96394.84;5013223;28;144518;-74
2022/10/16 06:25:54;;;;;;;0.10;0.10;;;;;;;11.26;100.00;96407.13;5015320;28;20095;-74
2022/10/16 06:28:40;;;;;;;0.20;0.20;;;;;;;11.28;100.00;96408.47;5026793;28;20393;-74
2022/10/16 06:31:30;;;;;;;0.20;0.20;;;;;;;11.37;100.00;96409.66;5024577;28;20411;-75
2022/10/16 06:34:15;;;;;;;0.10;0.10;;;;;;;11.39;100.00;96415.56;5027258;28;20131;-73
2022/10/16 06:37:01;;;;;;;0.10;0.10;;;;;;;11.54;100.00;96411.38;5019283;28;20050;-74
2022/10/16 06:39:47;;;;;;;0.10;0.10;;;;;;;11.53;100.00;96421.31;5019500;28;20235;-73
2022/10/16 06:42:33;;;;;;;0.10;0.10;;;;;;;11.61;100.00;96417.34;5027454;28;20041;-74
2022/10/16 06:45:21;;;;;;;0.10;0.10;;;;;;;11.61;100.00;96420.03;5027625;28;20080;-74
2022/10/16 06:48:07;;;;;;;0.20;0.20;;;;;;;11.67;100.00;96429.69;5027088;28;20079;-76
2022/10/16 06:50:56;;;;;;;0.20;0.20;;;;;;;11.76;100.00;96430.06;5027100;28;20231;-75
2022/10/16 06:53:48;;;;;;;0.10;0.10;;;;;;;11.71;100.00;96436.19;5028601;28;20094;-75
2022/10/16 06:56:36;;;;;;;0.10;0.10;;;;;;;11.78;100.00;96444.00;4337137;28;10000427;-74
2022/10/16 06:59:22;;;;;;;0.10;0.10;;;;;;;11.84;100.00;96459.91;5022128;28;20253;-75
2022/10/16 07:02:09;;;;;;;0.10;0.10;;;;;;;11.85;100.00;96458.03;5027464;28;20162;-74
2022/10/16 07:04:56;;;;;;;0.10;0.10;;;;;;;11.92;100.00;96467.50;5028571;28;20056;-75
2022/10/16 07:07:42;;;;;;;0.13;0.13;;;;;;;11.89;100.00;96457.25;5026503;28;20208;-75
2022/10/16 07:10:31;;;;;;;0.20;0.20;;;;;;;11.76;100.00;96463.03;5025949;28;20053;-76
2022/10/16 07:13:17;;;;;;;0.20;0.20;;;;;;;11.78;100.00;96471.63;5027639;28;20678;-76
2022/10/16 07:16:14;;;;;;;0.10;0.10;;;;;;;11.80;100.00;96474.88;5027618;28;20052;-74
2022/10/16 07:19:02;;;;;;;0.10;0.10;;;;;;;11.71;100.00;96479.06;5021380;28;20064;-74
2022/10/16 07:21:47;;;;;;;0.13;0.13;;;;;;;11.82;100.00;96493.38;5021166;28;20041;-74
2022/10/16 07:24:33;;;;;;;0.10;0.10;;;;;;;11.87;100.00;96493.44;5021519;28;20521;-73
2022/10/16 07:27:22;;;;;;;0.35;0.20;;;;;;;11.86;100.00;96500.69;5022083;28;20191;-75
2022/10/16 07:30:08;;;;;;;0.13;0.13;;;;;;;11.92;100.00;96499.66;5027651;28;20092;-74
2022/10/16 07:32:54;;;;;;;0.10;0.10;;;;;;;12.17;100.00;96485.63;5027825;28;20049;-75
2022/10/16 07:35:50;;;;;;;0.10;0.10;;;;;;;12.07;100.00;96503.53;5028010;28;20525;-75
2022/10/16 07:38:37;;;;;;;0.13;0.13;;;;;;;12.04;100.00;96512.09;5024242;28;20129;-75
2022/10/16 07:41:23;;;;;;;0.10;0.10;;;;;;;12.17;100.00;96522.38;5024952;28;20049;-76
2022/10/16 07:44:09;;;;;;;0.20;0.20;;;;;;;12.07;100.00;96533.03;5029236;28;20037;-74
2022/10/16 07:46:55;;;;;;;0.20;0.20;;;;;;;12.11;100.00;96534.13;5026221;28;20083;-74
2022/10/16 07:49:41;;;;;;;0.20;0.20;;;;;;;12.21;100.00;96540.38;5025139;28;20464;-75
2022/10/16 07:52:30;;;;;;;0.20;0.20;;;;;;;12.19;100.00;96542.50;5024134;28;20135;-75
2022/10/16 07:55:16;;;;;;;0.20;0.20;;;;;;;12.38;100.00;96545.63;5023849;28;20072;-75
2022/10/16 07:58:01;;;;;;;0.20;0.20;;;;;;;12.50;100.00;96553.47;5024812;28;20179;-74
2022/10/16 08:00:47;;;;;;;0.28;0.20;;;;;;;12.55;100.00;96553.53;5024106;28;20236;-74
2022/10/16 08:03:33;;;;;;;0.17;0.17;;;;;;;12.36;100.00;96553.09;5025274;28;20056;-75
2022/10/16 08:06:21;;;;;;;0.20;0.20;;;;;;;12.32;100.00;96586.91;4999895;28;20095;-75
2022/10/16 08:09:08;;;;;;;0.10;0.10;;;;;;;12.46;100.00;96581.91;5025796;28;20247;-74
2022/10/16 08:11:54;;;;;;;0.10;0.10;;;;;;;12.38;100.00;96583.19;5027538;28;20393;-75
2022/10/16 08:14:39;;;;;;;0.20;0.20;;;;;;;12.34;100.00;96582.06;5025458;28;20410;-74
2022/10/16 08:17:25;;;;;;;0.10;0.10;;;;;;;12.33;100.00;96582.34;5024623;28;20485;-75
2022/10/16 08:20:11;;;;;;;0.10;0.10;;;;;;;12.37;100.00;96583.44;5025448;28;20519;-74
2022/10/16 08:22:59;;;;;;;0.17;0.17;;;;;;;12.48;100.00;96583.25;5022805;28;20041;-73
2022/10/16 08:25:44;;;;;;;0.10;0.10;;;;;;;12.68;100.00;96587.16;5026445;28;20144;-74
2022/10/16 08:28:30;;;;;;;0.10;0.10;;;;;;;13.25;100.00;96581.06;5013917;28;20042;-75
2022/10/16 08:31:16;;;;;;;0.20;0.20;;;;;;;13.56;100.00;96577.41;5003111;28;20053;-75
2022/10/16 08:34:02;;;;;;;0.10;0.10;;;;;;;13.53;100.00;96582.50;5024297;28;20046;-74
2022/10/16 08:36:48;;;;;;;0.10;0.10;;;;;;;13.62;100.00;96600.56;5019082;28;20041;-74
2022/10/16 08:39:34;;;;;;;0.10;0.10;;;;;;;13.63;100.00;96602.19;5025852;28;20527;-74
2022/10/16 08:43:00;;;;;;;0.10;0.10;;;;;;;13.25;100.00;96592.63;5026696;28;20083;-74
2022/10/16 08:46:17;;;;;;;0.10;0.10;;;;;;;13.21;100.00;96601.47;5024490;28;20060;-73
2022/10/16 08:49:06;;;;;;;0.20;0.20;;;;;;;13.21;100.00;96596.88;5013545;28;20037;-75
2022/10/16 08:51:53;;;;;;;0.10;0.10;;;;;;;12.97;100.00;96596.47;5027443;28;20754;-74
2022/10/16 08:54:45;;;;;;;0.10;0.10;;;;;;;12.98;100.00;96616.06;5023697;28;20334;-74
2022/10/16 08:57:32;;;;;;;0.13;0.13;;;;;;;13.30;100.00;96610.63;5024884;28;20478;-74
2022/10/16 09:00:18;;;;;;;0.20;0.20;;;;;;;13.85;100.00;96625.34;5012069;28;20072;-75
2022/10/16 09:03:43;;;;;;;0.20;0.20;;;;;;;14.09;100.00;96629.19;5023988;28;20060;-75
2022/10/16 09:06:38;;;;;;;0.13;0.13;;;;;;;14.36;100.00;96634.34;5024821;28;20042;-75
2022/10/16 09:09:56;;;;;;;0.17;0.17;;;;;;;14.38;100.00;96636.75;5024359;28;20278;-75
2022/10/16 09:13:01;;;;;;;0.10;0.10;;;;;;;14.76;100.00;96628.16;5025675;28;20049;-74
2022/10/16 09:16:15;;;;;;;0.10;0.10;;;;;;;14.55;100.00;96642.72;5027824;28;20047;-75
2022/10/16 09:19:04;;;;;;;0.13;0.10;;;;;;;14.56;100.00;96643.53;5025301;28;20036;-75
2022/10/16 09:21:51;;;;;;;0.20;0.20;;;;;;;14.65;100.00;96647.31;5023880;28;20095;-74
2022/10/16 09:24:37;;;;;;;0.10;0.10;;;;;;;14.41;100.00;96647.00;5023222;28;20601;-74
2022/10/16 09:27:23;;;;;;;0.20;0.20;;;;;;;14.33;100.00;96655.59;5024087;28;20048;-75
2022/10/16 09:30:20;;;;;;;0.10;0.10;;;;;;;14.21;100.00;96651.28;5024211;28;20477;-75
2022/10/16 09:33:07;;;;;;;0.10;0.10;;;;;;;14.50;100.00;96669.66;5023295;28;20830;-75
2022/10/16 09:35:56;;;;;;;0.20;0.20;;;;;;;14.61;100.00;96668.56;5023886;28;20068;-75
2022/10/16 09:38:41;;;;;;;0.15;0.15;;;;;;;14.69;100.00;96667.22;5025033;28;20037;-75
2022/10/16 09:41:27;;;;;;;0.10;0.10;;;;;;;14.82;100.00;96663.19;5023730;28;20095;-75
2022/10/16 09:44:22;;;;;;;0.20;0.20;;;;;;;14.86;100.00;96658.88;5021889;28;20037;-74
2022/10/16 09:47:17;;;;;;;0.10;0.10;;;;;;;14.48;100.00;96674.50;5024237;28;20401;-74
2022/10/16 09:50:19;;;;;;;0.20;0.20;;;;;;;14.88;100.00;96662.13;5025289;28;20041;-74
2022/10/16 09:53:10;;;;;;;0.15;0.10;;;;;;;14.77;100.00;96662.09;5024681;28;20084;-75
2022/10/16 09:55:56;;;;;;;0.20;0.20;;;;;;;14.75;100.00;96661.56;5024112;28;20033;-75
2022/10/16 09:58:44;;;;;;;0.10;0.10;;;;;;;15.15;100.00;96667.19;5024981;28;20509;-75
2022/10/16 10:01:38;;;;;;;0.10;0.10;;;;;;;15.90;100.00;96669.97;5026010;28;20109;-75
2022/10/16 10:04:25;;;;;;;0.20;0.20;;;;;;;16.18;100.00;96661.16;5024846;28;20034;-75
2022/10/16 10:07:34;;;;;;;0.20;0.20;;;;;;;16.20;100.00;96664.41;5028604;28;20052;-75
2022/10/16 10:10:23;;;;;;;0.20;0.20;;;;;;;16.01;100.00;96658.03;5028917;28;20411;-76
2022/10/16 10:13:24;;;;;;;0.13;0.13;;;;;;;16.47;100.00;96652.34;5016239;28;20131;-74
2022/10/16 10:16:10;;;;;;;0.10;0.10;;;;;;;16.96;100.00;96636.03;5029673;28;20049;-74
2022/10/16 10:19:00;;;;;;;0.20;0.20;;;;;;;17.69;100.00;96645.81;5026783;28;20449;-75
2022/10/16 10:21:46;;;;;;;0.20;0.20;;;;;;;17.99;100.00;96636.53;5026634;28;20322;-74
2022/10/16 10:24:32;;;;;;;0.10;0.10;;;;;;;18.74;100.00;96646.56;5030070;28;20420;-75
2022/10/16 10:27:19;;;;;;;0.20;0.20;;;;;;;18.06;100.00;96651.31;5026940;28;20124;-75
2022/10/16 10:30:22;;;;;;;0.10;0.10;;;;;;;17.33;100.00;96665.13;5028555;28;20065;-74
2022/10/16 10:33:08;;;;;;;0.20;0.20;;;;;;;17.59;100.00;96668.38;5024138;28;20049;-75
2022/10/16 10:36:20;;;;;;;0.10;0.10;;;;;;;18.09;100.00;96658.84;5018659;28;20048;-76
2022/10/16 10:39:15;;;;;;;0.10;0.10;;;;;;;18.76;100.00;96649.78;5026561;28;20413;-76
2022/10/16 10:42:32;;;;;;;0.20;0.20;;;;;;;19.79;100.00;96660.44;5027960;28;20044;-74
2022/10/16 10:45:41;;;;;;;0.20;0.20;;;;;;;19.18;100.00;96656.91;5027406;28;20580;-76
2022/10/16 10:48:48;;;;;;;0.20;0.20;;;;;;;19.25;100.00;96656.53;5026405;28;20049;-75
2022/10/16 10:52:04;;;;;;;0.10;0.10;;;;;;;19.94;100.00;96655.47;5022963;28;20041;-76
2022/10/16 10:54:53;;;;;;;0.30;0.30;;;;;;;22.37;100.00;96649.59;5027953;28;20037;-75
2022/10/16 10:58:20;;;;;;;0.20;0.20;;;;;;;28.06;64.15;96622.50;5025026;28;20163;-76
2022/10/16 11:01:12;;;;;;;0.30;0.20;;;;;;;28.61;65.01;96629.66;5029117;28;20296;-75
2022/10/16 11:04:47;;;;;;;0.20;0.20;;;;;;;29.91;39.98;96628.97;5027500;28;20052;-77
2022/10/16 11:07:38;;;;;;;0.10;0.10;;;;;;;31.05;43.52;96614.78;4933374;28;20051;-77
2022/10/16 11:10:46;;;;;;;0.17;0.17;;;;;;;32.89;34.65;96621.38;5024971;28;20057;-77
2022/10/16 11:13:43;;;;;;;0.20;0.20;;;;;;;34.56;35.56;96623.53;5003074;28;20048;-77
2022/10/16 11:16:32;;;;;;;0.10;0.10;;;;;;;33.40;35.61;96629.50;5025169;28;20072;-77
2022/10/16 11:19:30;;;;;;;0.10;0.10;;;;;;;34.90;30.30;96618.28;5027831;28;20036;-77
2022/10/16 11:22:25;;;;;;;0.10;0.10;;;;;;;35.78;30.49;96616.16;5017204;28;20044;-76
2022/10/16 11:25:22;;;;;;;0.10;0.10;;;;;;;36.38;28.09;96605.72;5013317;28;20062;-77
2022/10/16 11:28:23;;;;;;;0.10;0.10;;;;;;;37.90;27.87;96614.09;5026988;28;20045;-77
2022/10/16 11:31:18;;;;;;;0.10;0.10;;;;;;;39.09;25.25;96626.69;5031415;28;20049;-76
2022/10/16 11:34:11;;;;;;;0.10;0.10;;;;;;;39.06;25.19;96622.72;5027185;28;20040;-76
2022/10/16 11:37:16;;;;;;;0.10;0.10;;;;;;;36.46;25.27;96629.53;5022364;28;20041;-77
2022/10/16 11:40:28;;;;;;;0.10;0.10;;;;;;;38.67;23.37;96629.88;5012071;28;20122;-76
2022/10/16 11:43:32;;;;;;;0.10;0.10;;;;;;;37.34;26.74;96629.66;5030562;28;20473;-75
2022/10/16 11:46:21;;;;;;;0.10;0.10;;;;;;;33.88;31.09;96626.34;5028953;28;20374;-76
2022/10/16 11:49:16;;;;;;;0.20;0.20;;;;;;;32.10;31.73;96625.66;5025182;28;20862;-76
2022/10/16 11:52:18;;;;;;;0.10;0.10;;;;;;;34.87;28.59;96624.63;5025022;28;20044;-77
2022/10/16 11:55:07;;;;;;;0.20;0.20;;;;;;;36.35;27.47;96626.03;5029344;28;20646;-76
2022/10/16 11:58:02;;;;;;;0.10;0.10;;;;;;;34.86;28.67;96629.34;5026661;28;20481;-77
2022/10/16 12:01:09;;;;;;;0.10;0.10;;;;;;;33.67;28.10;96631.88;5027412;28;20674;-76
2022/10/16 12:04:23;;;;;;;0.00;0.00;;;;;;;33.96;28.68;96644.63;5027761;28;20757;-76
2022/10/16 12:07:13;;;;;;;0.00;0.00;;;;;;;30.91;35.19;96649.75;5026445;28;20071;-75
2022/10/16 12:10:20;;;;;;;0.10;0.10;;;;;;;28.75;39.43;96657.47;5025897;28;20044;-75
2022/10/16 12:13:28;;;;;;;0.00;0.00;;;;;;;27.45;44.28;96649.28;5027234;28;20124;-76
2022/10/16 12:16:13;;;;;;;0.00;0.00;;;;;;;25.73;53.95;96659.06;5025196;28;20579;-75
2022/10/16 12:19:19;;;;;;;0.00;0.00;;;;;;;23.44;78.67;96670.69;5022779;28;20378;-76
2022/10/16 12:22:18;;;;;;;0.00;0.00;;;;;;;23.30;80.61;96661.91;5025531;28;20397;-75
2022/10/16 12:25:04;;;;;;;0.10;0.10;;;;;;;22.18;88.39;96660.81;5025491;28;20065;-75
2022/10/16 12:28:27;;;;;;;0.25;0.25;;;;;;;24.72;72.03;96659.41;5025543;28;20045;-75
2022/10/16 12:31:13;;;;;;;0.20;0.20;;;;;;;27.94;50.10;96659.97;4995794;28;20052;-76
2022/10/16 12:34:03;;;;;;;0.10;0.10;;;;;;;30.44;42.56;96651.06;5024140;28;20098;-75
2022/10/16 12:36:49;;;;;;;0.20;0.20;;;;;;;30.74;41.45;96651.91;5015516;28;20041;-75
2022/10/16 12:39:36;;;;;;;0.10;0.10;;;;;;;27.20;58.63;96653.31;5024003;28;20825;-75
2022/10/16 12:42:25;;;;;;;0.00;0.00;;;;;;;26.68;55.70;96654.19;5026593;28;20064;-76
2022/10/16 12:45:28;;;;;;;0.00;0.00;;;;;;;24.57;73.06;96656.47;5024247;28;20129;-75
2022/10/16 12:48:22;;;;;;;0.08;0.08;;;;;;;23.47;85.33;96661.03;5025051;28;20041;-74
2022/10/16 12:51:27;;;;;;;0.20;0.20;;;;;;;23.96;83.28;96659.56;5024586;28;20037;-75
2022/10/16 12:54:18;;;;;;;0.00;0.00;;;;;;;22.62;86.99;96671.72;5024266;28;20136;-74
2022/10/16 12:57:07;;;;;;;0.10;0.10;;;;;;;22.15;91.24;96671.53;5024331;28;20044;-75
2022/10/16 12:59:59;;;;;;;0.00;0.00;;;;;;;21.69;93.50;96668.16;5026523;28;20078;-74
2022/10/16 13:03:31;;;;;;;0.00;0.00;;;;;;;21.34;98.78;96663.69;5023743;28;20282;-74
2022/10/16 13:06:28;;;;;;;0.08;0.00;;;;;;;20.93;100.00;96666.59;5026086;28;20537;-76
2022/10/16 13:09:37;;;;;;;0.10;0.10;;;;;;;20.45;100.00;96687.00;5024970;28;20055;-75
2022/10/16 13:12:44;;;;;;;0.10;0.10;;;;;;;20.27;100.00;96687.94;5024913;28;20444;-76
2022/10/16 13:15:49;;;;;;;0.10;0.10;;;;;;;20.51;100.00;96682.25;5024246;28;20468;-75
2022/10/16 13:18:58;;;;;;;0.08;0.08;;;;;;;19.82;100.00;96686.97;5023288;28;20033;-75